Time,TemperatureF,DewpointF,PressureIn,WindDirection,WindDirectionDegrees,WindSpeedMPH,WindSpeedGustMPH,Humidity,HourlyPrecipIn,Conditions,Clouds,dailyrainin,SoftwareType,DateUTC
2013-04-12 00:00:00,62.8,42.8,29.69,WNW,286,1.0,9.0,48,0.00,,CLR,0.00,VWS V14.01,2013-04-12 07:00:00,
2013-04-12 00:07:00,62.8,42.3,29.69,WNW,284,4.0,4.0,47,0.00,,CLR,0.00,VWS V14.01,2013-04-12 07:07:00,
2013-04-12 00:12:00,62.7,42.2,29.68,WNW,284,13.0,13.0,47,0.00,,CLR,0.00,VWS V14.01,2013-04-12 07:12:00,
2013-04-12 00:17:00,62.7,42.2,29.68,West,281,2.0,5.0,47,0.00,,CLR,0.00,VWS V14.01,2013-04-12 07:17:00,
2013-04-12 00:23:00,62.7,42.2,29.68,WNW,283,5.0,5.0,47,0.00,,CLR,0.00,VWS V14.01,2013-04-12 07:23:00,
2013-04-12 00:29:00,62.7,42.2,29.68,WNW,286,1.0,6.0,47,0.00,,CLR,0.00,VWS V14.01,2013-04-12 07:29:00,
2013-04-12 00:35:00,62.7,41.6,29.68,WNW,284,4.0,5.0,46,0.00,,CLR,0.00,VWS V14.01,2013-04-12 07:35:00,
2013-04-12 00:40:00,62.7,41.6,29.68,WNW,282,7.0,7.0,46,0.00,,CLR,0.00,VWS V14.01,2013-04-12 07:40:00,
2013-04-12 00:45:00,62.7,41.6,29.68,WNW,283,4.0,6.0,46,0.00,,CLR,0.00,VWS V14.01,2013-04-12 07:45:00,
2013-04-12 00:51:00,62.7,41.6,29.68,West,280,4.0,4.0,46,0.00,,CLR,0.00,VWS V14.01,2013-04-12 07:51:00,
2013-04-12 00:56:00,62.7,41.6,29.69,West,280,4.0,5.0,46,0.00,,CLR,0.00,VWS V14.01,2013-04-12 07:56:00,
2013-04-12 01:01:00,62.6,41.5,29.68,West,279,0.0,4.0,46,0.00,,CLR,0.00,VWS V14.01,2013-04-12 08:01:00,
2013-04-12 01:06:00,62.6,41.5,29.69,West,279,0.0,1.0,46,0.00,,CLR,0.00,VWS V14.01,2013-04-12 08:06:00,
2013-04-12 01:12:00,62.5,41.5,29.68,West,279,0.0,2.0,46,0.00,,CLR,0.00,VWS V14.01,2013-04-12 08:12:00,
2013-04-12 01:17:00,62.3,41.3,29.69,West,279,0.0,6.0,46,0.00,,CLR,0.00,VWS V14.01,2013-04-12 08:17:00,
2013-04-12 01:23:00,62.1,41.1,29.69,West,279,0.0,0.0,46,0.00,,CLR,0.00,VWS V14.01,2013-04-12 08:23:00,
2013-04-12 01:28:00,61.5,41.1,29.68,West,279,0.0,0.0,47,0.00,,CLR,0.00,VWS V14.01,2013-04-12 08:28:00,
2013-04-12 01:33:00,60.9,41.1,29.68,West,279,0.0,0.0,48,0.00,,CLR,0.00,VWS V14.01,2013-04-12 08:33:00,
2013-04-12 01:39:00,60.1,41.4,29.68,West,279,0.0,0.0,50,0.00,,CLR,0.00,VWS V14.01,2013-04-12 08:39:00,
2013-04-12 01:44:00,59.5,41.4,29.68,West,279,0.0,0.0,51,0.00,,CLR,0.00,VWS V14.01,2013-04-12 08:44:00,
2013-04-12 01:50:00,58.7,41.1,29.68,West,279,0.0,0.0,52,0.00,,CLR,0.00,VWS V14.01,2013-04-12 08:50:00,
2013-04-12 01:55:00,58.2,41.2,29.68,West,279,0.0,0.0,53,0.00,,CLR,0.00,VWS V14.01,2013-04-12 08:55:00,
2013-04-12 02:00:00,57.6,41.1,29.68,West,279,0.0,0.0,54,0.00,,CLR,0.00,VWS V14.01,2013-04-12 09:00:00,
2013-04-12 02:05:00,57.2,41.2,29.68,West,279,0.0,0.0,55,0.00,,CLR,0.00,VWS V14.01,2013-04-12 09:05:00,
2013-04-12 02:11:00,56.7,41.2,29.68,West,279,0.0,0.0,56,0.00,,CLR,0.00,VWS V14.01,2013-04-12 09:11:00,
2013-04-12 02:17:00,56.2,41.2,29.68,West,279,0.0,0.0,57,0.00,,CLR,0.00,VWS V14.01,2013-04-12 09:17:00,
2013-04-12 02:22:00,55.9,41.3,29.68,West,279,0.0,0.0,58,0.00,,CLR,0.00,VWS V14.01,2013-04-12 09:22:00,
2013-04-12 02:27:00,55.7,41.2,29.68,West,279,0.0,0.0,58,0.00,,CLR,0.00,VWS V14.01,2013-04-12 09:27:00,
2013-04-12 02:32:00,55.4,41.3,29.68,West,279,0.0,0.0,59,0.00,,CLR,0.00,VWS V14.01,2013-04-12 09:32:00,
2013-04-12 02:38:00,55.2,41.1,29.68,West,279,0.0,0.0,59,0.00,,CLR,0.00,VWS V14.01,2013-04-12 09:38:00,
2013-04-12 02:44:00,55.0,41.4,29.68,West,279,0.0,0.0,60,0.00,,CLR,0.00,VWS V14.01,2013-04-12 09:44:00,
2013-04-12 02:49:00,54.8,41.2,29.68,West,279,0.0,0.0,60,0.00,,CLR,0.00,VWS V14.01,2013-04-12 09:49:00,
2013-04-12 02:55:00,54.5,40.9,29.68,West,279,0.0,0.0,60,0.00,,CLR,0.00,VWS V14.01,2013-04-12 09:55:00,
2013-04-12 03:00:00,54.3,40.7,29.68,West,279,0.0,0.0,60,0.00,,CLR,0.00,VWS V14.01,2013-04-12 10:00:00,
2013-04-12 03:06:00,54.1,41.0,29.68,West,279,0.0,0.0,61,0.00,,CLR,0.00,VWS V14.01,2013-04-12 10:06:00,
2013-04-12 03:11:00,53.9,40.8,29.68,West,279,0.0,0.0,61,0.00,,CLR,0.00,VWS V14.01,2013-04-12 10:11:00,
2013-04-12 03:17:00,53.7,40.6,29.68,West,279,0.0,0.0,61,0.00,,CLR,0.00,VWS V14.01,2013-04-12 10:17:00,
2013-04-12 03:22:00,53.5,40.4,29.68,West,279,0.0,0.0,61,0.00,,CLR,0.00,VWS V14.01,2013-04-12 10:22:00,
2013-04-12 03:27:00,53.4,40.7,29.68,West,279,0.0,0.0,62,0.00,,CLR,0.00,VWS V14.01,2013-04-12 10:27:00,
2013-04-12 03:33:00,53.2,40.5,29.68,West,279,0.0,0.0,62,0.00,,CLR,0.00,VWS V14.01,2013-04-12 10:33:00,
2013-04-12 03:39:00,53.1,40.4,29.69,West,279,2.0,2.0,62,0.00,,CLR,0.00,VWS V14.01,2013-04-12 10:39:00,
2013-04-12 03:44:00,53.0,40.3,29.69,West,279,0.0,0.0,62,0.00,,CLR,0.00,VWS V14.01,2013-04-12 10:44:00,
2013-04-12 03:49:00,53.0,40.3,29.69,West,279,0.0,0.0,62,0.00,,CLR,0.00,VWS V14.01,2013-04-12 10:49:00,
2013-04-12 03:55:00,53.1,40.4,29.69,West,279,0.0,0.0,62,0.00,,CLR,0.00,VWS V14.01,2013-04-12 10:55:00,
2013-04-12 04:00:00,53.1,40.4,29.69,West,279,0.0,0.0,62,0.00,,CLR,0.00,VWS V14.01,2013-04-12 11:00:00,
2013-04-12 04:08:00,53.2,40.5,29.68,West,278,0.0,0.0,62,0.00,,CLR,0.00,VWS V14.01,2013-04-12 11:08:00,
2013-04-12 04:13:00,53.2,40.5,29.68,West,275,0.0,2.0,62,0.00,,CLR,0.00,VWS V14.01,2013-04-12 11:13:00,
2013-04-12 04:19:00,53.4,40.7,29.68,West,275,0.0,2.0,62,0.00,,CLR,0.00,VWS V14.01,2013-04-12 11:19:00,
2013-04-12 04:25:00,53.6,40.5,29.68,West,271,0.0,0.0,61,0.00,,CLR,0.00,VWS V14.01,2013-04-12 11:25:00,
2013-04-12 04:30:00,53.9,40.8,29.68,West,267,0.0,0.0,61,0.00,,CLR,0.00,VWS V14.01,2013-04-12 11:30:00,
2013-04-12 04:35:00,54.0,40.4,29.67,West,265,0.0,0.0,60,0.00,,CLR,0.00,VWS V14.01,2013-04-12 11:35:00,
2013-04-12 04:41:00,54.1,40.5,29.67,West,265,0.0,0.0,60,0.00,,CLR,0.00,VWS V14.01,2013-04-12 11:41:00,
2013-04-12 04:47:00,54.1,40.5,29.67,West,261,0.0,0.0,60,0.00,,CLR,0.00,VWS V14.01,2013-04-12 11:47:00,
2013-04-12 04:52:00,54.1,40.5,29.67,WSW,257,0.0,2.0,60,0.00,,CLR,0.00,VWS V14.01,2013-04-12 11:52:00,
2013-04-12 04:57:00,54.0,40.4,29.67,WSW,255,0.0,2.0,60,0.00,,CLR,0.00,VWS V14.01,2013-04-12 11:57:00,
2013-04-12 05:03:00,54.1,40.1,29.67,WSW,254,0.0,0.0,59,0.00,,CLR,0.00,VWS V14.01,2013-04-12 12:03:00,
2013-04-12 05:08:00,54.1,40.1,29.67,WSW,253,0.0,0.0,59,0.00,,CLR,0.00,VWS V14.01,2013-04-12 12:08:00,
2013-04-12 05:13:00,54.1,40.1,29.67,WSW,253,0.0,0.0,59,0.00,,CLR,0.00,VWS V14.01,2013-04-12 12:13:00,
2013-04-12 05:18:00,54.1,40.1,29.67,WSW,253,0.0,0.0,59,0.00,,CLR,0.00,VWS V14.01,2013-04-12 12:18:00,
2013-04-12 05:23:00,53.9,39.9,29.67,WSW,253,0.0,0.0,59,0.00,,CLR,0.00,VWS V14.01,2013-04-12 12:23:00,
2013-04-12 05:28:00,53.8,39.8,29.68,WSW,253,0.0,0.0,59,0.00,,CLR,0.00,VWS V14.01,2013-04-12 12:28:00,
2013-04-12 05:34:00,53.6,40.1,29.68,WSW,253,0.0,0.0,60,0.00,,CLR,0.00,VWS V14.01,2013-04-12 12:34:00,
2013-04-12 05:39:00,53.4,39.9,29.68,WSW,254,0.0,1.0,60,0.00,,CLR,0.00,VWS V14.01,2013-04-12 12:39:00,
2013-04-12 05:45:00,53.2,39.7,29.69,WSW,254,0.0,3.0,60,0.00,,CLR,0.00,VWS V14.01,2013-04-12 12:45:00,
2013-04-12 05:50:00,53.0,39.1,29.69,WSW,254,0.0,2.0,59,0.00,,CLR,0.00,VWS V14.01,2013-04-12 12:50:00,
2013-04-12 05:55:00,52.8,38.9,29.70,WSW,254,0.0,0.0,59,0.00,,CLR,0.00,VWS V14.01,2013-04-12 12:55:00,
2013-04-12 06:01:00,52.4,39.4,29.70,WSW,254,0.0,4.0,61,0.00,,CLR,0.00,VWS V14.01,2013-04-12 13:01:00,
2013-04-12 06:07:00,52.2,39.2,29.70,WSW,254,0.0,4.0,61,0.00,,CLR,0.00,VWS V14.01,2013-04-12 13:07:00,
2013-04-12 06:13:00,51.8,39.2,29.70,WSW,254,0.0,0.0,62,0.00,,CLR,0.00,VWS V14.01,2013-04-12 13:13:00,
2013-04-12 06:18:00,51.7,39.5,29.70,WSW,254,0.0,0.0,63,0.00,,CLR,0.00,VWS V14.01,2013-04-12 13:18:00,
2013-04-12 06:24:00,51.6,39.4,29.70,WSW,254,0.0,0.0,63,0.00,,CLR,0.00,VWS V14.01,2013-04-12 13:24:00,
2013-04-12 06:29:00,51.5,39.3,29.71,WSW,254,0.0,0.0,63,0.00,,CLR,0.00,VWS V14.01,2013-04-12 13:29:00,
2013-04-12 06:35:00,51.2,39.5,29.71,WSW,254,0.0,0.0,64,0.00,,CLR,0.00,VWS V14.01,2013-04-12 13:35:00,
2013-04-12 06:41:00,51.1,39.8,29.71,WSW,254,0.0,0.0,65,0.00,,CLR,0.00,VWS V14.01,2013-04-12 13:41:00,
2013-04-12 06:48:00,51.0,39.7,29.72,WSW,254,0.0,0.0,65,0.00,,CLR,0.00,VWS V14.01,2013-04-12 13:48:00,
2013-04-12 06:53:00,51.0,40.1,29.72,WSW,254,0.0,0.0,66,0.00,,CLR,0.00,VWS V14.01,2013-04-12 13:53:00,
2013-04-12 06:59:00,51.0,40.1,29.72,WSW,254,0.0,0.0,66,0.00,,CLR,0.00,VWS V14.01,2013-04-12 13:59:00,
2013-04-12 07:04:00,51.5,40.5,29.73,WSW,254,0.0,0.0,66,0.00,,CLR,0.00,VWS V14.01,2013-04-12 14:04:00,
2013-04-12 07:10:00,51.9,40.5,29.73,WSW,254,0.0,0.0,65,0.00,,CLR,0.00,VWS V14.01,2013-04-12 14:10:00,
2013-04-12 07:16:00,52.5,40.7,29.74,WSW,254,0.0,0.0,64,0.00,,CLR,0.00,VWS V14.01,2013-04-12 14:16:00,
2013-04-12 07:22:00,53.2,41.0,29.74,WSW,254,0.0,0.0,63,0.00,,CLR,0.00,VWS V14.01,2013-04-12 14:22:00,
2013-04-12 07:28:00,53.6,40.9,29.74,WSW,254,0.0,0.0,62,0.00,,CLR,0.00,VWS V14.01,2013-04-12 14:28:00,
2013-04-12 07:33:00,54.5,41.3,29.75,WSW,254,0.0,0.0,61,0.00,,CLR,0.00,VWS V14.01,2013-04-12 14:33:00,
2013-04-12 07:38:00,55.2,41.6,29.75,WSW,254,0.0,0.0,60,0.00,,CLR,0.00,VWS V14.01,2013-04-12 14:38:00,
2013-04-12 07:44:00,55.5,41.4,29.75,WSW,254,0.0,0.0,59,0.00,,CLR,0.00,VWS V14.01,2013-04-12 14:44:00,
2013-04-12 07:49:00,55.9,41.3,29.75,WSW,254,0.0,0.0,58,0.00,,CLR,0.00,VWS V14.01,2013-04-12 14:49:00,
2013-04-12 07:54:00,56.3,41.7,29.75,WSW,254,0.0,0.0,58,0.00,,CLR,0.00,VWS V14.01,2013-04-12 14:54:00,
2013-04-12 08:00:00,56.4,41.4,29.75,WSW,254,0.0,0.0,57,0.00,,CLR,0.00,VWS V14.01,2013-04-12 15:00:00,
2013-04-12 08:05:00,56.9,41.8,29.75,WSW,254,0.0,0.0,57,0.00,,CLR,0.00,VWS V14.01,2013-04-12 15:05:00,
2013-04-12 08:13:00,57.5,42.4,29.75,WSW,254,1.0,1.0,57,0.00,,CLR,0.00,VWS V14.01,2013-04-12 15:13:00,
2013-04-12 08:18:00,57.8,42.2,29.75,WSW,254,0.0,1.0,56,0.00,,CLR,0.00,VWS V14.01,2013-04-12 15:18:00,
2013-04-12 08:23:00,58.6,42.0,29.75,WSW,254,0.0,1.0,54,0.00,,CLR,0.00,VWS V14.01,2013-04-12 15:23:00,
2013-04-12 08:28:00,59.3,42.7,29.76,WSW,254,0.0,1.0,54,0.00,,CLR,0.00,VWS V14.01,2013-04-12 15:28:00,
2013-04-12 08:34:00,60.1,42.9,29.76,WSW,254,2.0,2.0,53,0.00,,CLR,0.00,VWS V14.01,2013-04-12 15:34:00,
2013-04-12 08:39:00,60.4,42.7,29.76,WSW,250,1.0,2.0,52,0.00,,CLR,0.00,VWS V14.01,2013-04-12 15:39:00,
2013-04-12 08:45:00,61.1,42.8,29.76,WSW,250,2.0,2.0,51,0.00,,CLR,0.00,VWS V14.01,2013-04-12 15:45:00,
2013-04-12 08:51:00,61.5,42.7,29.76,WSW,250,0.0,2.0,50,0.00,,CLR,0.00,VWS V14.01,2013-04-12 15:51:00,
2013-04-12 08:57:00,62.4,44.0,29.76,WSW,250,0.0,2.0,51,0.00,,CLR,0.00,VWS V14.01,2013-04-12 15:57:00,
2013-04-12 09:04:00,63.4,42.8,29.76,WSW,250,3.0,3.0,47,0.00,,CLR,0.00,VWS V14.01,2013-04-12 16:04:00,
2013-04-12 09:09:00,64.3,43.1,29.77,WSW,250,1.0,3.0,46,0.00,,CLR,0.00,VWS V14.01,2013-04-12 16:09:00,
2013-04-12 09:14:00,64.7,42.9,29.77,WSW,250,0.0,3.0,45,0.00,,CLR,0.00,VWS V14.01,2013-04-12 16:14:00,
2013-04-12 09:19:00,65.3,43.4,29.77,WSW,250,0.0,3.0,45,0.00,,CLR,0.00,VWS V14.01,2013-04-12 16:19:00,
2013-04-12 09:25:00,66.0,43.5,29.77,WSW,250,0.0,3.0,44,0.00,,CLR,0.00,VWS V14.01,2013-04-12 16:25:00,
2013-04-12 09:30:00,66.3,43.2,29.77,WSW,250,0.0,3.0,43,0.00,,CLR,0.00,VWS V14.01,2013-04-12 16:30:00,
2013-04-12 09:35:00,66.9,42.5,29.77,WSW,250,1.0,3.0,41,0.00,,CLR,0.00,VWS V14.01,2013-04-12 16:35:00,
2013-04-12 09:40:00,67.1,42.6,29.77,WSW,250,1.0,3.0,41,0.00,,CLR,0.00,VWS V14.01,2013-04-12 16:40:00,
2013-04-12 09:46:00,67.7,43.8,29.78,WSW,250,2.0,3.0,42,0.00,,CLR,0.00,VWS V14.01,2013-04-12 16:46:00,
2013-04-12 09:51:00,68.0,43.5,29.78,NNW,339,0.0,3.0,41,0.00,,CLR,0.00,VWS V14.01,2013-04-12 16:51:00,
2013-04-12 09:57:00,68.6,43.3,29.78,NNW,339,0.0,3.0,40,0.00,,CLR,0.00,VWS V14.01,2013-04-12 16:57:00,
2013-04-12 10:02:00,69.4,42.7,29.78,NNW,338,0.0,3.0,38,0.00,,CLR,0.00,VWS V14.01,2013-04-12 17:02:00,
2013-04-12 10:07:00,69.5,42.8,29.79,NNW,338,0.0,3.0,38,0.00,,CLR,0.00,VWS V14.01,2013-04-12 17:07:00,
2013-04-12 10:13:00,69.9,43.2,29.78,NW,306,0.0,5.0,38,0.00,,CLR,0.00,VWS V14.01,2013-04-12 17:13:00,
2013-04-12 10:19:00,70.0,43.2,29.78,NW,306,1.0,5.0,38,0.00,,CLR,0.00,VWS V14.01,2013-04-12 17:19:00,
2013-04-12 10:27:00,71.3,43.7,29.78,NW,325,5.0,5.0,37,0.00,,CLR,0.00,VWS V14.01,2013-04-12 17:27:00,
2013-04-12 10:33:00,71.8,43.4,29.78,NW,325,2.0,5.0,36,0.00,,CLR,0.00,VWS V14.01,2013-04-12 17:33:00,
2013-04-12 10:38:00,72.5,42.6,29.78,NW,325,0.0,5.0,34,0.00,,CLR,0.00,VWS V14.01,2013-04-12 17:38:00,
2013-04-12 10:47:00,73.9,42.2,29.78,ENE,71,2.0,4.0,32,0.00,,CLR,0.00,VWS V14.01,2013-04-12 17:47:00,
2013-04-12 10:55:00,74.9,41.4,29.78,NNE,22,2.0,4.0,30,0.00,,CLR,0.00,VWS V14.01,2013-04-12 17:55:00,
2013-04-12 11:01:00,75.0,41.5,29.78,NNE,22,0.0,4.0,30,0.00,,CLR,0.00,VWS V14.01,2013-04-12 18:01:00,
2013-04-12 11:07:00,75.6,41.1,29.78,ENE,62,0.0,7.0,29,0.00,,CLR,0.00,VWS V14.01,2013-04-12 18:07:00,
2013-04-12 11:13:00,75.7,42.1,29.79,NE,43,5.0,5.0,30,0.00,,CLR,0.00,VWS V14.01,2013-04-12 18:13:00,
2013-04-12 11:18:00,75.8,39.5,29.79,ENE,68,0.0,7.0,27,0.00,,CLR,0.00,VWS V14.01,2013-04-12 18:18:00,
2013-04-12 11:24:00,75.7,39.4,29.78,ENE,69,0.0,3.0,27,0.00,,CLR,0.00,VWS V14.01,2013-04-12 18:24:00,
2013-04-12 11:29:00,75.6,40.2,29.78,ENE,70,3.0,3.0,28,0.00,,CLR,0.00,VWS V14.01,2013-04-12 18:29:00,
2013-04-12 12:26:00,78.5,38.7,29.76,NE,44,6.0,6.0,24,0.00,,CLR,0.00,VWS V14.01,2013-04-12 19:26:00,
2013-04-12 12:27:00,78.5,38.7,29.76,NE,44,6.0,6.0,24,0.00,,CLR,0.00,VWS V14.01,2013-04-12 19:27:00,
2013-04-12 12:33:00,78.8,39.0,29.76,NE,46,0.0,6.0,24,0.00,,CLR,0.00,VWS V14.01,2013-04-12 19:33:00,
2013-04-12 12:39:00,79.2,41.4,29.76,ENE,67,0.0,6.0,26,0.00,,CLR,0.00,VWS V14.01,2013-04-12 19:39:00,
2013-04-12 12:44:00,80.1,39.0,29.75,ENE,63,6.0,6.0,23,0.00,,CLR,0.00,VWS V14.01,2013-04-12 19:44:00,
2013-04-12 12:50:00,80.1,37.9,29.75,ENE,67,0.0,6.0,22,0.00,,CLR,0.00,VWS V14.01,2013-04-12 19:50:00,
2013-04-12 12:56:00,79.8,37.6,29.75,ENE,63,4.0,6.0,22,0.00,,CLR,0.00,VWS V14.01,2013-04-12 19:56:00,
2013-04-12 13:01:00,79.8,36.4,29.75,ENE,63,0.0,6.0,21,0.00,,CLR,0.00,VWS V14.01,2013-04-12 20:01:00,
2013-04-12 13:06:00,80.1,37.9,29.75,ENE,62,4.0,6.0,22,0.00,,CLR,0.00,VWS V14.01,2013-04-12 20:06:00,
2013-04-12 13:12:00,80.7,37.2,29.74,NNE,19,3.0,4.0,21,0.00,,CLR,0.00,VWS V14.01,2013-04-12 20:12:00,
2013-04-12 13:17:00,80.8,39.6,29.74,NNE,17,3.0,4.0,23,0.00,,CLR,0.00,VWS V14.01,2013-04-12 20:17:00,
2013-04-12 13:23:00,81.2,38.8,29.73,ENE,65,0.0,4.0,22,0.00,,CLR,0.00,VWS V14.01,2013-04-12 20:23:00,
2013-04-12 13:28:00,81.1,36.3,29.73,East,90,0.0,4.0,20,0.00,,CLR,0.00,VWS V14.01,2013-04-12 20:28:00,
2013-04-12 13:34:00,81.1,36.3,29.73,East,90,0.0,0.0,20,0.00,,CLR,0.00,VWS V14.01,2013-04-12 20:34:00,
2013-04-12 13:39:00,81.6,36.7,29.73,East,84,6.0,6.0,20,0.00,,CLR,0.00,VWS V14.01,2013-04-12 20:39:00,
2013-04-12 13:45:00,81.2,36.4,29.73,ENE,63,0.0,7.0,20,0.00,,CLR,0.00,VWS V14.01,2013-04-12 20:45:00,
2013-04-12 13:50:00,81.1,36.3,29.73,ENE,72,3.0,7.0,20,0.00,,CLR,0.00,VWS V14.01,2013-04-12 20:50:00,
2013-04-12 13:56:00,81.4,35.2,29.73,ENE,72,0.0,7.0,19,0.00,,CLR,0.00,VWS V14.01,2013-04-12 20:56:00,
2013-04-12 14:01:00,82.0,35.7,29.72,ENE,63,5.0,7.0,19,0.00,,CLR,0.00,VWS V14.01,2013-04-12 21:01:00,
2013-04-12 14:07:00,82.1,34.4,29.72,NE,50,0.0,7.0,18,0.00,,CLR,0.00,VWS V14.01,2013-04-12 21:07:00,
2013-04-12 14:12:00,82.4,36.0,29.72,NE,51,5.0,7.0,19,0.00,,CLR,0.00,VWS V14.01,2013-04-12 21:12:00,
2013-04-12 14:18:00,82.4,34.7,29.72,ENE,63,6.0,7.0,18,0.00,,CLR,0.00,VWS V14.01,2013-04-12 21:18:00,
2013-04-12 14:23:00,82.2,34.5,29.71,ENE,59,0.0,7.0,18,0.00,,CLR,0.00,VWS V14.01,2013-04-12 21:23:00,
2013-04-12 14:29:00,82.3,33.2,29.71,NE,38,2.0,7.0,17,0.00,,CLR,0.00,VWS V14.01,2013-04-12 21:29:00,
2013-04-12 14:34:00,82.8,33.6,29.71,North,355,2.0,2.0,17,0.00,,CLR,0.00,VWS V14.01,2013-04-12 21:34:00,
2013-04-12 14:40:00,83.1,32.3,29.71,North,350,2.0,6.0,16,0.00,,CLR,0.00,VWS V14.01,2013-04-12 21:40:00,
2013-04-12 14:46:00,83.2,32.4,29.71,WNW,291,1.0,6.0,16,0.00,,CLR,0.00,VWS V14.01,2013-04-12 21:46:00,
2013-04-12 14:51:00,83.3,30.9,29.70,WNW,289,0.0,1.0,15,0.00,,CLR,0.00,VWS V14.01,2013-04-12 21:51:00,
2013-04-12 14:57:00,83.9,34.5,29.70,ENE,60,1.0,1.0,17,0.00,,CLR,0.00,VWS V14.01,2013-04-12 21:57:00,
2013-04-12 15:02:00,84.1,29.8,29.70,West,273,2.0,3.0,14,0.00,,CLR,0.00,VWS V14.01,2013-04-12 22:02:00,
2013-04-12 15:08:00,84.3,28.2,29.70,West,273,6.0,6.0,13,0.00,,CLR,0.00,VWS V14.01,2013-04-12 22:08:00,
2013-04-12 15:13:00,83.9,27.8,29.69,WNW,291,4.0,6.0,13,0.00,,CLR,0.00,VWS V14.01,2013-04-12 22:13:00,
2013-04-12 15:19:00,83.4,29.3,29.69,WNW,292,0.0,6.0,14,0.00,,CLR,0.00,VWS V14.01,2013-04-12 22:19:00,
2013-04-12 15:24:00,83.7,31.2,29.69,SW,232,1.0,6.0,15,0.00,,CLR,0.00,VWS V14.01,2013-04-12 22:24:00,
2013-04-12 15:29:00,83.9,29.6,29.69,SW,234,0.0,6.0,14,0.00,,CLR,0.00,VWS V14.01,2013-04-12 22:29:00,
2013-04-12 15:35:00,84.1,29.8,29.68,SW,231,0.0,0.0,14,0.00,,CLR,0.00,VWS V14.01,2013-04-12 22:35:00,
2013-04-12 15:41:00,84.1,29.8,29.68,NW,305,0.0,1.0,14,0.00,,CLR,0.00,VWS V14.01,2013-04-12 22:41:00,
2013-04-12 15:47:00,84.3,28.2,29.68,North,351,1.0,5.0,13,0.00,,CLR,0.00,VWS V14.01,2013-04-12 22:47:00,
2013-04-12 15:52:00,84.4,30.0,29.68,NNW,340,4.0,5.0,14,0.00,,CLR,0.00,VWS V14.01,2013-04-12 22:52:00,
2013-04-12 15:58:00,84.4,30.0,29.68,NW,316,2.0,6.0,14,0.00,,CLR,0.00,VWS V14.01,2013-04-12 22:58:00,
2013-04-12 16:03:00,84.2,29.9,29.68,NW,315,1.0,2.0,14,0.00,,CLR,0.00,VWS V14.01,2013-04-12 23:03:00,
2013-04-12 16:09:00,84.1,29.8,29.68,NW,315,0.0,2.0,14,0.00,,CLR,0.00,VWS V14.01,2013-04-12 23:09:00,
2013-04-12 16:14:00,84.0,29.7,29.67,NW,317,2.0,2.0,14,0.00,,CLR,0.00,VWS V14.01,2013-04-12 23:14:00,
2013-04-12 16:19:00,84.0,29.7,29.67,NE,38,1.0,2.0,14,0.00,,CLR,0.00,VWS V14.01,2013-04-12 23:19:00,
2013-04-12 16:25:00,83.6,27.6,29.67,ENE,62,0.0,1.0,13,0.00,,CLR,0.00,VWS V14.01,2013-04-12 23:25:00,
2013-04-12 16:30:00,83.6,29.4,29.66,NW,313,5.0,5.0,14,0.00,,CLR,0.00,VWS V14.01,2013-04-12 23:30:00,
2013-04-12 16:35:00,83.3,30.9,29.67,West,265,0.0,5.0,15,0.00,,CLR,0.00,VWS V14.01,2013-04-12 23:35:00,
2013-04-12 16:41:00,83.2,29.1,29.67,West,262,2.0,2.0,14,0.00,,CLR,0.00,VWS V14.01,2013-04-12 23:41:00,
2013-04-12 16:46:00,83.4,31.0,29.66,WNW,286,12.0,12.0,15,0.00,,CLR,0.00,VWS V14.01,2013-04-12 23:46:00,
2013-04-12 16:52:00,83.4,39.4,29.67,West,265,3.0,12.0,21,0.00,,CLR,0.00,VWS V14.01,2013-04-12 23:52:00,
2013-04-12 16:58:00,83.0,41.4,29.67,SW,224,3.0,12.0,23,0.00,,CLR,0.00,VWS V14.01,2013-04-12 23:58:00,
2013-04-12 17:03:00,82.3,40.8,29.67,SW,234,7.0,7.0,23,0.00,,CLR,0.00,VWS V14.01,2013-04-13 00:03:00,
2013-04-12 17:08:00,81.8,40.4,29.67,SW,227,3.0,7.0,23,0.00,,CLR,0.00,VWS V14.01,2013-04-13 00:08:00,
2013-04-12 17:13:00,81.4,40.1,29.67,SW,234,8.0,8.0,23,0.00,,CLR,0.00,VWS V14.01,2013-04-13 00:13:00,
2013-04-12 17:20:00,81.2,41.0,29.67,SW,230,5.0,8.0,24,0.00,,CLR,0.00,VWS V14.01,2013-04-13 00:20:00,
2013-04-12 17:25:00,80.7,38.4,29.67,SW,231,7.0,7.0,22,0.00,,CLR,0.00,VWS V14.01,2013-04-13 00:25:00,
2013-04-12 17:32:00,80.0,40.0,29.67,SW,224,3.0,10.0,24,0.00,,CLR,0.00,VWS V14.01,2013-04-13 00:32:00,
2013-04-12 17:37:00,79.3,38.3,29.67,SW,229,3.0,10.0,23,0.00,,CLR,0.00,VWS V14.01,2013-04-13 00:37:00,
2013-04-12 17:42:00,79.2,37.1,29.67,SW,232,3.0,10.0,22,0.00,,CLR,0.00,VWS V14.01,2013-04-13 00:42:00,
2013-04-12 17:47:00,79.5,36.2,29.67,SW,236,2.0,10.0,21,0.00,,CLR,0.00,VWS V14.01,2013-04-13 00:47:00,
2013-04-12 17:53:00,79.6,36.3,29.67,SW,235,8.0,10.0,21,0.00,,CLR,0.00,VWS V14.01,2013-04-13 00:53:00,
2013-04-12 17:59:00,79.8,36.4,29.67,SSW,213,6.0,10.0,21,0.00,,CLR,0.00,VWS V14.01,2013-04-13 00:59:00,
2013-04-12 18:05:00,79.8,37.6,29.67,South,184,4.0,10.0,22,0.00,,CLR,0.00,VWS V14.01,2013-04-13 01:05:00,
2013-04-12 18:10:00,79.5,36.2,29.67,SSW,205,5.0,5.0,21,0.00,,CLR,0.00,VWS V14.01,2013-04-13 01:10:00,
2013-04-12 18:16:00,78.8,40.0,29.67,SSW,210,8.0,8.0,25,0.00,,CLR,0.00,VWS V14.01,2013-04-13 01:16:00,
2013-04-12 18:22:00,78.5,39.8,29.67,SW,219,7.0,8.0,25,0.00,,CLR,0.00,VWS V14.01,2013-04-13 01:22:00,
2013-04-12 18:27:00,77.8,39.2,29.67,SW,227,2.0,10.0,25,0.00,,CLR,0.00,VWS V14.01,2013-04-13 01:27:00,
2013-04-12 18:33:00,77.4,39.9,29.68,SW,225,6.0,10.0,26,0.00,,CLR,0.00,VWS V14.01,2013-04-13 01:33:00,
2013-04-12 18:39:00,77.0,39.5,29.68,WSW,244,5.0,10.0,26,0.00,,CLR,0.00,VWS V14.01,2013-04-13 01:39:00,
2013-04-12 18:44:00,76.6,39.2,29.68,SW,229,5.0,10.0,26,0.00,,CLR,0.00,VWS V14.01,2013-04-13 01:44:00,
2013-04-12 18:50:00,76.4,39.0,29.68,WSW,243,3.0,10.0,26,0.00,,CLR,0.00,VWS V14.01,2013-04-13 01:50:00,
2013-04-12 18:55:00,75.8,41.3,29.68,SSW,209,9.0,10.0,29,0.00,,CLR,0.00,VWS V14.01,2013-04-13 01:55:00,
2013-04-12 19:00:00,75.5,41.0,29.68,WSW,245,5.0,10.0,29,0.00,,CLR,0.00,VWS V14.01,2013-04-13 02:00:00,
2013-04-12 19:05:00,74.8,41.3,29.68,SSW,209,3.0,10.0,30,0.00,,CLR,0.00,VWS V14.01,2013-04-13 02:05:00,
2013-04-12 19:11:00,74.6,41.2,29.68,SW,221,4.0,10.0,30,0.00,,CLR,0.00,VWS V14.01,2013-04-13 02:11:00,
2013-04-12 19:17:00,74.1,41.6,29.68,WSW,238,2.0,10.0,31,0.00,,CLR,0.00,VWS V14.01,2013-04-13 02:17:00,
2013-04-12 19:22:00,73.6,42.0,29.68,SW,217,3.0,10.0,32,0.00,,CLR,0.00,VWS V14.01,2013-04-13 02:22:00,
2013-04-12 19:28:00,73.1,41.5,29.68,SW,229,2.0,10.0,32,0.00,,CLR,0.00,VWS V14.01,2013-04-13 02:28:00,
2013-04-12 19:33:00,72.6,41.1,29.68,SSW,202,3.0,6.0,32,0.00,,CLR,0.00,VWS V14.01,2013-04-13 02:33:00,
2013-04-12 19:39:00,72.4,40.9,29.68,SW,223,4.0,4.0,32,0.00,,CLR,0.00,VWS V14.01,2013-04-13 02:39:00,
2013-04-12 19:44:00,72.0,41.3,29.69,SW,234,4.0,11.0,33,0.00,,CLR,0.00,VWS V14.01,2013-04-13 02:44:00,
2013-04-12 19:50:00,71.7,43.3,29.69,SW,232,7.0,10.0,36,0.00,,CLR,0.00,VWS V14.01,2013-04-13 02:50:00,
2013-04-12 19:55:00,71.4,43.8,29.70,SW,229,4.0,8.0,37,0.00,,CLR,0.00,VWS V14.01,2013-04-13 02:55:00,
2013-04-12 20:00:00,71.2,44.3,29.70,SW,229,5.0,10.0,38,0.00,,CLR,0.00,VWS V14.01,2013-04-13 03:00:00,
2013-04-12 20:07:00,70.8,43.3,29.71,WSW,238,3.0,6.0,37,0.00,,CLR,0.00,VWS V14.01,2013-04-13 03:07:00,
2013-04-12 20:13:00,70.6,41.7,29.71,SW,221,5.0,14.0,35,0.00,,CLR,0.00,VWS V14.01,2013-04-13 03:13:00,
2013-04-12 20:18:00,70.5,40.8,29.71,SW,225,6.0,8.0,34,0.00,,CLR,0.00,VWS V14.01,2013-04-13 03:18:00,
2013-04-12 20:24:00,70.3,39.9,29.71,SW,236,2.0,7.0,33,0.00,,CLR,0.00,VWS V14.01,2013-04-13 03:24:00,
2013-04-12 20:29:00,70.3,39.9,29.71,WSW,241,5.0,12.0,33,0.00,,CLR,0.00,VWS V14.01,2013-04-13 03:29:00,
2013-04-12 20:35:00,70.3,39.9,29.72,SW,232,4.0,7.0,33,0.00,,CLR,0.00,VWS V14.01,2013-04-13 03:35:00,
2013-04-12 20:40:00,70.3,39.1,29.72,SW,229,3.0,7.0,32,0.00,,CLR,0.00,VWS V14.01,2013-04-13 03:40:00,
2013-04-12 20:45:00,70.3,39.1,29.72,West,261,6.0,7.0,32,0.00,,CLR,0.00,VWS V14.01,2013-04-13 03:45:00,
2013-04-12 20:50:00,70.2,39.8,29.72,WSW,248,8.0,10.0,33,0.00,,CLR,0.00,VWS V14.01,2013-04-13 03:50:00,
2013-04-12 20:56:00,70.1,39.7,29.72,WSW,237,4.0,5.0,33,0.00,,CLR,0.00,VWS V14.01,2013-04-13 03:56:00,
2013-04-12 21:00:00,70.1,39.7,29.72,WSW,240,4.0,5.0,33,0.00,,CLR,0.00,VWS V14.01,2013-04-13 04:00:00,
2013-04-12 21:02:00,70.1,39.7,29.72,WSW,240,5.0,5.0,33,0.00,,CLR,0.00,VWS V14.01,2013-04-13 04:02:00,
2013-04-12 21:05:00,70.0,39.6,29.73,SW,231,6.0,8.0,33,0.00,,CLR,0.00,VWS V14.01,2013-04-13 04:05:00,
2013-04-12 21:09:00,69.9,39.5,29.73,SW,229,3.0,6.0,33,0.00,,CLR,0.00,VWS V14.01,2013-04-13 04:09:00,
2013-04-12 21:14:00,69.7,40.1,29.73,SW,231,3.0,3.0,34,0.00,,CLR,0.00,VWS V14.01,2013-04-13 04:14:00,
2013-04-12 21:19:00,69.6,40.0,29.73,SW,235,5.0,5.0,34,0.00,,CLR,0.00,VWS V14.01,2013-04-13 04:19:00,
2013-04-12 21:24:00,69.3,39.8,29.73,SW,235,2.0,4.0,34,0.00,,CLR,0.00,VWS V14.01,2013-04-13 04:24:00,
2013-04-12 21:30:00,69.2,39.7,29.73,SW,230,5.0,5.0,34,0.00,,CLR,0.00,VWS V14.01,2013-04-13 04:30:00,
2013-04-12 21:35:00,69.2,39.7,29.73,SW,223,0.0,5.0,34,0.00,,CLR,0.00,VWS V14.01,2013-04-13 04:35:00,
2013-04-12 21:40:00,69.1,39.6,29.73,SW,223,6.0,6.0,34,0.00,,CLR,0.00,VWS V14.01,2013-04-13 04:40:00,
2013-04-12 21:45:00,69.0,40.2,29.73,SW,223,1.0,6.0,35,0.00,,CLR,0.00,VWS V14.01,2013-04-13 04:45:00,
2013-04-12 21:51:00,68.8,40.1,29.74,SW,223,0.0,1.0,35,0.00,,CLR,0.00,VWS V14.01,2013-04-13 04:51:00,
2013-04-12 21:56:00,68.6,39.9,29.74,SW,223,1.0,1.0,35,0.00,,CLR,0.00,VWS V14.01,2013-04-13 04:56:00,
2013-04-12 22:01:00,68.3,39.6,29.74,SW,223,0.0,0.0,35,0.00,,CLR,0.00,VWS V14.01,2013-04-13 05:01:00,
2013-04-12 22:07:00,68.0,40.1,29.74,SW,223,0.0,0.0,36,0.00,,CLR,0.00,VWS V14.01,2013-04-13 05:07:00,
2013-04-12 22:12:00,67.7,39.8,29.74,SW,223,4.0,4.0,36,0.00,,CLR,0.00,VWS V14.01,2013-04-13 05:12:00,
2013-04-12 22:18:00,67.7,39.8,29.74,SW,223,0.0,2.0,36,0.00,,CLR,0.00,VWS V14.01,2013-04-13 05:18:00,
2013-04-12 22:27:00,67.8,40.6,29.74,SW,223,0.0,2.0,37,0.00,,CLR,0.00,VWS V14.01,2013-04-13 05:27:00,
2013-04-12 22:32:00,67.4,39.5,29.74,SW,223,0.0,5.0,36,0.00,,CLR,0.00,VWS V14.01,2013-04-13 05:32:00,
2013-04-12 22:38:00,67.2,40.1,29.74,SW,223,0.0,0.0,37,0.00,,CLR,0.00,VWS V14.01,2013-04-13 05:38:00,
2013-04-12 22:43:00,66.8,40.4,29.74,SW,223,0.0,0.0,38,0.00,,CLR,0.00,VWS V14.01,2013-04-13 05:43:00,
2013-04-12 22:48:00,66.3,40.6,29.74,SW,223,0.0,0.0,39,0.00,,CLR,0.00,VWS V14.01,2013-04-13 05:48:00,
2013-04-12 22:53:00,65.6,40.7,29.74,SW,223,0.0,0.0,40,0.00,,CLR,0.00,VWS V14.01,2013-04-13 05:53:00,
2013-04-12 22:59:00,65.0,40.8,29.74,SW,223,0.0,0.0,41,0.00,,CLR,0.00,VWS V14.01,2013-04-13 05:59:00,
2013-04-12 23:04:00,64.3,40.7,29.74,SW,223,0.0,0.0,42,0.00,,CLR,0.00,VWS V14.01,2013-04-13 06:04:00,
2013-04-12 23:10:00,63.7,40.8,29.74,SW,223,0.0,0.0,43,0.00,,CLR,0.00,VWS V14.01,2013-04-13 06:10:00,
2013-04-12 23:16:00,63.2,41.0,29.74,SW,223,0.0,0.0,44,0.00,,CLR,0.00,VWS V14.01,2013-04-13 06:16:00,
2013-04-12 23:22:00,62.7,40.5,29.74,SW,223,0.0,0.0,44,0.00,,CLR,0.00,VWS V14.01,2013-04-13 06:22:00,
2013-04-12 23:27:00,62.3,40.7,29.74,SW,223,0.0,0.0,45,0.00,,CLR,0.00,VWS V14.01,2013-04-13 06:27:00,
2013-04-12 23:33:00,62.0,41.0,29.75,SW,223,0.0,0.0,46,0.00,,CLR,0.00,VWS V14.01,2013-04-13 06:33:00,
2013-04-12 23:40:00,61.6,40.6,29.75,SW,223,0.0,0.0,46,0.00,,CLR,0.00,VWS V14.01,2013-04-13 06:40:00,
2013-04-12 23:46:00,61.4,39.9,29.75,SW,223,0.0,0.0,45,0.00,,CLR,0.00,VWS V14.01,2013-04-13 06:46:00,
2013-04-12 23:51:00,61.4,39.9,29.75,SW,223,0.0,0.0,45,0.00,,CLR,0.00,VWS V14.01,2013-04-13 06:51:00,
2013-04-12 23:57:00,61.4,39.9,29.75,SW,223,0.0,0.0,45,0.00,,CLR,0.00,VWS V14.01,2013-04-13 06:57:00,